Pays
Station

 

Conditions  météo  pour  Scatsa/Shetland Island  -  Royaume-Uni    Royaume-Uni

  
11 °C
    
 
 

METAR pour Scatsa/Shetland Island :

EGPM 160520Z 10020KT 9000 DZ FEW009 BKN017 11/10 Q0997

 

Voici le bulletin pour Scatsa/Shetland Island - Royaume-Uni.
 
Le bulletin a été fait il y a 21 minutes, à 05:20 UTC .
Le vent soufflait à la vitesse de 10.3 mètres par seconde de Est (100°).
 
La température était de 11 °C, avec un point de rosée à 10 °C.
La pression atmosphérique était de 997 hPa.
L'humidité relative était de 93.5%.
 
Il y avait 1 à 2/8ème de nébulosité à une hauteur de 274 mètres et 5 à 7/8ème de nébulosité à une hauteur de 518 mètres.
 
La visibilité globale était de 9.0 kilomètres.
 
Actuellement moderé(e) bruine.

 
 
 

Pays :   A   B   C   D   E   F   G   H   I   J   K   L   M   N   O   P   Q   R   S   T   U   V   W   Y   Z

 

Partenaires :  Info Météo avec Met'info
Météo Marine avec MeteoMarine.net
Infos Site  |  Infos Légales  |  Crédits  |  Confidentialité
Contactez-nous  |  Ajouter aux favoris
© 2013-2019 METAR - Tous droits réservés